sensor_id;sensor_type;location;lat;lon;timestamp;pressure;altitude;pressure_sealevel;temperature;humidity
75418;BME280;63997;52.112;5.420;2022-11-15T00:01:55;100993.94;;;6.10;92.80
75418;BME280;63997;52.112;5.420;2022-11-15T00:04:22;100998.94;;;6.12;92.65
75418;BME280;63997;52.112;5.420;2022-11-15T00:06:48;100985.75;;;6.12;92.94
75418;BME280;63997;52.112;5.420;2022-11-15T00:09:14;100994.44;;;6.13;93.01
75418;BME280;63997;52.112;5.420;2022-11-15T00:11:41;100995.72;;;6.15;93.26
75418;BME280;63997;52.112;5.420;2022-11-15T00:14:07;100985.94;;;6.16;93.25
75418;BME280;63997;52.112;5.420;2022-11-15T00:16:33;100990.66;;;6.19;93.45
75418;BME280;63997;52.112;5.420;2022-11-15T00:19:00;100984.31;;;6.20;93.38
75418;BME280;63997;52.112;5.420;2022-11-15T00:21:26;100981.09;;;6.23;93.74
75418;BME280;63997;52.112;5.420;2022-11-15T00:23:53;100978.19;;;6.24;93.49
75418;BME280;63997;52.112;5.420;2022-11-15T00:26:19;100971.03;;;6.25;93.71
75418;BME280;63997;52.112;5.420;2022-11-15T00:28:45;100981.03;;;6.28;93.86
75418;BME280;63997;52.112;5.420;2022-11-15T00:31:13;100972.03;;;6.29;93.87
75418;BME280;63997;52.112;5.420;2022-11-15T00:33:43;100969.91;;;6.31;93.98
75418;BME280;63997;52.112;5.420;2022-11-15T00:36:10;100974.09;;;6.32;93.99
75418;BME280;63997;52.112;5.420;2022-11-15T00:38:38;100973.03;;;6.33;93.96
75418;BME280;63997;52.112;5.420;2022-11-15T00:41:06;100971.94;;;6.34;94.11
75418;BME280;63997;52.112;5.420;2022-11-15T00:43:36;100976.66;;;6.37;94.14
75418;BME280;63997;52.112;5.420;2022-11-15T00:46:03;100975.59;;;6.38;94.01
75418;BME280;63997;52.112;5.420;2022-11-15T00:48:30;100984.03;;;6.40;94.35
75418;BME280;63997;52.112;5.420;2022-11-15T00:50:57;100978.44;;;6.42;94.46
75418;BME280;63997;52.112;5.420;2022-11-15T00:53:24;100973.66;;;6.44;94.54
75418;BME280;63997;52.112;5.420;2022-11-15T00:55:50;100959.38;;;6.45;94.51
75418;BME280;63997;52.112;5.420;2022-11-15T00:58:17;100960.66;;;6.47;94.50
75418;BME280;63997;52.112;5.420;2022-11-15T01:00:45;100954.31;;;6.48;94.59
75418;BME280;63997;52.112;5.420;2022-11-15T01:03:14;100954.78;;;6.50;94.60
75418;BME280;63997;52.112;5.420;2022-11-15T01:05:40;100944.75;;;6.52;94.79
75418;BME280;63997;52.112;5.420;2022-11-15T01:08:12;100933.56;;;6.55;94.75
75418;BME280;63997;52.112;5.420;2022-11-15T01:10:39;100943.06;;;6.56;94.83
75418;BME280;63997;52.112;5.420;2022-11-15T01:13:05;100934.56;;;6.59;94.86
75418;BME280;63997;52.112;5.420;2022-11-15T01:15:32;100936.66;;;6.62;94.98
75418;BME280;63997;52.112;5.420;2022-11-15T01:17:58;100942.44;;;6.65;94.83
75418;BME280;63997;52.112;5.420;2022-11-15T01:20:24;100933.13;;;6.67;94.95
75418;BME280;63997;52.112;5.420;2022-11-15T01:22:51;100937.06;;;6.70;95.02
75418;BME280;63997;52.112;5.420;2022-11-15T01:25:17;100929.63;;;6.72;94.97
75418;BME280;63997;52.112;5.420;2022-11-15T01:27:44;100930.13;;;6.74;95.07
75418;BME280;63997;52.112;5.420;2022-11-15T01:30:10;100927.66;;;6.77;95.07
75418;BME280;63997;52.112;5.420;2022-11-15T01:32:36;100922.09;;;6.79;95.05
75418;BME280;63997;52.112;5.420;2022-11-15T01:35:04;100924.16;;;6.82;95.26
75418;BME280;63997;52.112;5.420;2022-11-15T01:37:32;100915.66;;;6.85;95.26
75418;BME280;63997;52.112;5.420;2022-11-15T01:39:58;100918.78;;;6.87;95.29
75418;BME280;63997;52.112;5.420;2022-11-15T01:42:24;100919.25;;;6.89;95.28
75418;BME280;63997;52.112;5.420;2022-11-15T01:44:51;100919.78;;;6.91;95.40
75418;BME280;63997;52.112;5.420;2022-11-15T01:47:35;100917.03;;;6.96;95.44
75418;BME280;63997;52.112;5.420;2022-11-15T01:50:12;100925.47;;;6.98;95.29
75418;BME280;63997;52.112;5.420;2022-11-15T01:52:40;100909.00;;;7.01;95.64
75418;BME280;63997;52.112;5.420;2022-11-15T01:55:11;100915.88;;;7.02;95.47
75418;BME280;63997;52.112;5.420;2022-11-15T01:57:40;100907.34;;;7.05;95.53
75418;BME280;63997;52.112;5.420;2022-11-15T02:00:09;100900.69;;;7.08;95.49
75418;BME280;63997;52.112;5.420;2022-11-15T02:02:37;100901.97;;;7.10;95.53
75418;BME280;63997;52.112;5.420;2022-11-15T02:05:06;100907.72;;;7.12;95.66
75418;BME280;63997;52.112;5.420;2022-11-15T02:07:35;100913.22;;;7.16;95.46
75418;BME280;63997;52.112;5.420;2022-11-15T02:10:08;100907.63;;;7.18;95.73
75418;BME280;63997;52.112;5.420;2022-11-15T02:12:36;100894.91;;;7.20;95.61
75418;BME280;63997;52.112;5.420;2022-11-15T02:15:04;100896.69;;;7.24;95.68
75418;BME280;63997;52.112;5.420;2022-11-15T02:23:27;100874.03;;;7.32;95.73
75418;BME280;63997;52.112;5.420;2022-11-15T02:26:10;100878.44;;;7.36;95.91
75418;BME280;63997;52.112;5.420;2022-11-15T02:29:02;100878.03;;;7.43;95.83
75418;BME280;63997;52.112;5.420;2022-11-15T02:34:50;100858.31;;;7.49;95.83
75418;BME280;63997;52.112;5.420;2022-11-15T02:37:48;100857.44;;;7.54;95.93
75418;BME280;63997;52.112;5.420;2022-11-15T02:40:49;100859.78;;;7.55;95.90
75418;BME280;63997;52.112;5.420;2022-11-15T02:43:32;100847.53;;;7.59;95.94
75418;BME280;63997;52.112;5.420;2022-11-15T02:46:36;100845.03;;;7.63;96.04
75418;BME280;63997;52.112;5.420;2022-11-15T02:49:29;100845.25;;;7.66;96.09
75418;BME280;63997;52.112;5.420;2022-11-15T02:51:57;100840.94;;;7.71;96.00
75418;BME280;63997;52.112;5.420;2022-11-15T02:54:26;100840.31;;;7.74;96.07
75418;BME280;63997;52.112;5.420;2022-11-15T02:57:02;100831.78;;;7.77;96.10
75418;BME280;63997;52.112;5.420;2022-11-15T02:59:41;100833.03;;;7.79;95.85
75418;BME280;63997;52.112;5.420;2022-11-15T03:02:18;100822.94;;;7.81;96.14
75418;BME280;63997;52.112;5.420;2022-11-15T03:07:38;100814.88;;;7.86;96.22
75418;BME280;63997;52.112;5.420;2022-11-15T03:10:24;100812.72;;;7.88;96.17
75418;BME280;63997;52.112;5.420;2022-11-15T03:13:00;100817.69;;;7.90;96.02
75418;BME280;63997;52.112;5.420;2022-11-15T03:15:36;100818.66;;;7.94;96.11
75418;BME280;63997;52.112;5.420;2022-11-15T03:18:10;100820.72;;;7.97;96.05
75418;BME280;63997;52.112;5.420;2022-11-15T03:20:42;100819.03;;;8.01;96.25
75418;BME280;63997;52.112;5.420;2022-11-15T03:23:10;100818.44;;;8.04;96.22
75418;BME280;63997;52.112;5.420;2022-11-15T03:25:41;100822.31;;;8.07;96.38
75418;BME280;63997;52.112;5.420;2022-11-15T03:28:13;100830.47;;;8.10;96.05
75418;BME280;63997;52.112;5.420;2022-11-15T03:30:42;100826.91;;;8.15;96.32
75418;BME280;63997;52.112;5.420;2022-11-15T03:33:12;100824.41;;;8.18;96.48
75418;BME280;63997;52.112;5.420;2022-11-15T03:35:41;100829.13;;;8.21;96.39
75418;BME280;63997;52.112;5.420;2022-11-15T03:38:24;100832.75;;;8.26;96.34
75418;BME280;63997;52.112;5.420;2022-11-15T03:40:59;100822.63;;;8.28;96.24
75418;BME280;63997;52.112;5.420;2022-11-15T03:43:46;100823.59;;;8.32;96.37
75418;BME280;63997;52.112;5.420;2022-11-15T03:46:24;100829.84;;;8.36;96.46
75418;BME280;63997;52.112;5.420;2022-11-15T03:48:57;100835.63;;;8.38;96.47
75418;BME280;63997;52.112;5.420;2022-11-15T03:51:25;100835.78;;;8.41;96.29
75418;BME280;63997;52.112;5.420;2022-11-15T03:53:51;100835.19;;;8.44;96.51
75418;BME280;63997;52.112;5.420;2022-11-15T03:56:18;100826.66;;;8.47;96.51
75418;BME280;63997;52.112;5.420;2022-11-15T03:58:44;100831.34;;;8.51;96.42
75418;BME280;63997;52.112;5.420;2022-11-15T04:01:10;100824.66;;;8.53;96.63
75418;BME280;63997;52.112;5.420;2022-11-15T04:03:37;100814.06;;;8.53;96.65
75418;BME280;63997;52.112;5.420;2022-11-15T04:06:03;100830.88;;;8.57;96.44
75418;BME280;63997;52.112;5.420;2022-11-15T04:08:30;100821.25;;;8.61;96.67
75418;BME280;63997;52.112;5.420;2022-11-15T04:10:56;100827.31;;;8.62;96.64
75418;BME280;63997;52.112;5.420;2022-11-15T04:13:22;100824.84;;;8.65;96.58
75418;BME280;63997;52.112;5.420;2022-11-15T04:15:49;100824.22;;;8.68;96.75
75418;BME280;63997;52.112;5.420;2022-11-15T04:18:25;100816.78;;;8.70;96.54
75418;BME280;63997;52.112;5.420;2022-11-15T04:20:51;100822.53;;;8.72;96.74
75418;BME280;63997;52.112;5.420;2022-11-15T04:23:36;100828.03;;;8.76;96.75
75418;BME280;63997;52.112;5.420;2022-11-15T04:26:19;100814.44;;;8.78;96.53
75418;BME280;63997;52.112;5.420;2022-11-15T04:28:47;100807.75;;;8.80;96.72
75418;BME280;63997;52.112;5.420;2022-11-15T04:31:32;100810.09;;;8.82;96.61
75418;BME280;63997;52.112;5.420;2022-11-15T04:33:58;100804.47;;;8.83;96.67
75418;BME280;63997;52.112;5.420;2022-11-15T04:36:25;100803.06;;;8.86;96.83
75418;BME280;63997;52.112;5.420;2022-11-15T04:39:11;100815.09;;;8.92;96.69
75418;BME280;63997;52.112;5.420;2022-11-15T04:41:38;100805.31;;;8.92;96.60
75418;BME280;63997;52.112;5.420;2022-11-15T04:44:04;100807.63;;;8.94;96.76
75418;BME280;63997;52.112;5.420;2022-11-15T04:46:30;100808.09;;;8.96;96.61
75418;BME280;63997;52.112;5.420;2022-11-15T04:48:57;100807.00;;;8.97;96.69
75418;BME280;63997;52.112;5.420;2022-11-15T04:51:25;100808.28;;;8.99;96.74
75418;BME280;63997;52.112;5.420;2022-11-15T04:53:51;100809.50;;;9.02;96.68
75418;BME280;63997;52.112;5.420;2022-11-15T04:56:18;100803.13;;;9.03;97.03
75418;BME280;63997;52.112;5.420;2022-11-15T04:58:44;100802.81;;;9.05;96.80
75418;BME280;63997;52.112;5.420;2022-11-15T05:01:13;100797.19;;;9.06;96.69
75418;BME280;63997;52.112;5.420;2022-11-15T05:03:41;100798.75;;;9.07;96.80
75418;BME280;63997;52.112;5.420;2022-11-15T05:06:27;100801.91;;;9.09;96.74
75418;BME280;63997;52.112;5.420;2022-11-15T05:08:54;100804.56;;;9.09;96.88
75418;BME280;63997;52.112;5.420;2022-11-15T05:11:20;100813.28;;;9.10;96.78
75418;BME280;63997;52.112;5.420;2022-11-15T05:13:47;100806.13;;;9.10;96.94
75418;BME280;63997;52.112;5.420;2022-11-15T05:16:13;100809.22;;;9.12;96.73
75418;BME280;63997;52.112;5.420;2022-11-15T05:18:40;100818.75;;;9.13;96.76
75418;BME280;63997;52.112;5.420;2022-11-15T05:21:10;100812.97;;;9.11;96.83
75418;BME280;63997;52.112;5.420;2022-11-15T05:23:37;100817.00;;;9.09;96.69
75418;BME280;63997;52.112;5.420;2022-11-15T05:26:05;100812.81;;;9.08;96.76
75418;BME280;63997;52.112;5.420;2022-11-15T05:28:35;100813.59;;;9.08;96.57
75418;BME280;63997;52.112;5.420;2022-11-15T05:31:09;100819.84;;;9.12;96.63
75418;BME280;63997;52.112;5.420;2022-11-15T05:33:37;100816.59;;;9.15;96.98
75418;BME280;63997;52.112;5.420;2022-11-15T05:36:09;100817.50;;;9.19;96.72
75418;BME280;63997;52.112;5.420;2022-11-15T05:38:38;100819.56;;;9.22;96.99
75418;BME280;63997;52.112;5.420;2022-11-15T05:41:05;100815.81;;;9.23;96.92
75418;BME280;63997;52.112;5.420;2022-11-15T05:43:34;100823.16;;;9.26;96.98
75418;BME280;63997;52.112;5.420;2022-11-15T05:46:03;100818.31;;;9.28;96.93
75418;BME280;63997;52.112;5.420;2022-11-15T05:48:31;100820.66;;;9.30;96.79
75418;BME280;63997;52.112;5.420;2022-11-15T05:50:59;100827.69;;;9.35;96.74
75418;BME280;63997;52.112;5.420;2022-11-15T05:53:25;100828.47;;;9.35;97.06
75418;BME280;63997;52.112;5.420;2022-11-15T05:55:52;100827.84;;;9.38;96.97
75418;BME280;63997;52.112;5.420;2022-11-15T05:58:19;100835.50;;;9.40;96.81
75418;BME280;63997;52.112;5.420;2022-11-15T06:00:46;100831.28;;;9.39;96.92
75418;BME280;63997;52.112;5.420;2022-11-15T06:03:13;100828.63;;;9.39;96.91
75418;BME280;63997;52.112;5.420;2022-11-15T06:05:40;100824.72;;;9.45;96.80
75418;BME280;63997;52.112;5.420;2022-11-15T06:08:08;100836.31;;;9.49;96.91
75418;BME280;63997;52.112;5.420;2022-11-15T06:10:35;100836.16;;;9.54;97.01
75418;BME280;63997;52.112;5.420;2022-11-15T06:13:04;100835.06;;;9.55;96.90
75418;BME280;63997;52.112;5.420;2022-11-15T06:15:34;100834.28;;;9.54;96.82
75418;BME280;63997;52.112;5.420;2022-11-15T06:18:00;100832.41;;;9.55;97.01
75418;BME280;63997;52.112;5.420;2022-11-15T06:20:28;100838.63;;;9.59;96.93
75418;BME280;63997;52.112;5.420;2022-11-15T06:22:58;100837.25;;;9.62;97.03
75418;BME280;63997;52.112;5.420;2022-11-15T06:25:26;100846.44;;;9.64;96.84
75418;BME280;63997;52.112;5.420;2022-11-15T06:27:53;100848.03;;;9.65;96.92
75418;BME280;63997;52.112;5.420;2022-11-15T06:30:20;100845.81;;;9.67;96.88
75418;BME280;63997;52.112;5.420;2022-11-15T06:32:47;100854.25;;;9.69;96.93
75418;BME280;63997;52.112;5.420;2022-11-15T06:35:14;100845.19;;;9.70;96.91
75418;BME280;63997;52.112;5.420;2022-11-15T06:37:41;100847.06;;;9.70;97.01
75418;BME280;63997;52.112;5.420;2022-11-15T06:40:09;100847.06;;;9.70;96.91
75418;BME280;63997;52.112;5.420;2022-11-15T06:42:35;100838.81;;;9.71;96.87
75418;BME280;63997;52.112;5.420;2022-11-15T06:45:02;100845.69;;;9.72;96.94
75418;BME280;63997;52.112;5.420;2022-11-15T06:47:29;100838.03;;;9.71;96.87
75418;BME280;63997;52.112;5.420;2022-11-15T06:49:57;100849.44;;;9.71;96.64
75418;BME280;63997;52.112;5.420;2022-11-15T06:52:23;100850.81;;;9.69;96.72
75418;BME280;63997;52.112;5.420;2022-11-15T06:54:50;100856.44;;;9.67;96.92
75418;BME280;63997;52.112;5.420;2022-11-15T06:57:17;100858.00;;;9.68;96.84
75418;BME280;63997;52.112;5.420;2022-11-15T06:59:43;100864.88;;;9.69;96.84
75418;BME280;63997;52.112;5.420;2022-11-15T07:02:13;100859.56;;;9.69;96.59
75418;BME280;63997;52.112;5.420;2022-11-15T07:04:40;100868.78;;;9.72;96.82
75418;BME280;63997;52.112;5.420;2022-11-15T07:07:06;100869.56;;;9.72;96.84
75418;BME280;63997;52.112;5.420;2022-11-15T07:09:33;100869.25;;;9.74;97.24
75418;BME280;63997;52.112;5.420;2022-11-15T07:11:59;100871.59;;;9.75;96.62
75418;BME280;63997;52.112;5.420;2022-11-15T07:14:32;100870.53;;;9.76;96.63
75418;BME280;63997;52.112;5.420;2022-11-15T07:16:59;100873.63;;;9.78;96.87
75418;BME280;63997;52.112;5.420;2022-11-15T07:19:25;100872.53;;;9.79;96.71
75418;BME280;63997;52.112;5.420;2022-11-15T07:21:52;100874.09;;;9.80;96.87
75418;BME280;63997;52.112;5.420;2022-11-15T07:24:20;100881.78;;;9.82;96.76
75418;BME280;63997;52.112;5.420;2022-11-15T07:26:54;100875.38;;;9.83;96.96
75418;BME280;63997;52.112;5.420;2022-11-15T07:29:26;100875.03;;;9.85;96.86
75418;BME280;63997;52.112;5.420;2022-11-15T07:31:53;100880.03;;;9.86;96.91
75418;BME280;63997;52.112;5.420;2022-11-15T07:34:20;100881.28;;;9.89;96.86
75418;BME280;63997;52.112;5.420;2022-11-15T07:36:47;100876.75;;;9.89;96.74
75418;BME280;63997;52.112;5.420;2022-11-15T07:39:15;100882.84;;;9.90;96.76
75418;BME280;63997;52.112;5.420;2022-11-15T07:41:43;100884.09;;;9.92;96.71
75418;BME280;63997;52.112;5.420;2022-11-15T07:44:09;100880.38;;;9.93;96.73
75418;BME280;63997;52.112;5.420;2022-11-15T07:46:36;100882.69;;;9.95;96.74
75418;BME280;63997;52.112;5.420;2022-11-15T07:49:02;100869.41;;;9.95;96.58
75418;BME280;63997;52.112;5.420;2022-11-15T07:51:29;100869.88;;;9.97;96.59
75418;BME280;63997;52.112;5.420;2022-11-15T07:53:55;100869.88;;;9.97;96.50
75418;BME280;63997;52.112;5.420;2022-11-15T07:56:21;100864.56;;;9.97;96.60
75418;BME280;63997;52.112;5.420;2022-11-15T07:58:48;100866.75;;;9.95;96.40
75418;BME280;63997;52.112;5.420;2022-11-15T08:01:16;100865.97;;;9.94;96.33
75418;BME280;63997;52.112;5.420;2022-11-15T08:03:43;100863.00;;;9.96;96.33
75418;BME280;63997;52.112;5.420;2022-11-15T08:06:09;100860.97;;;10.01;96.17
75418;BME280;63997;52.112;5.420;2022-11-15T08:08:36;100856.88;;;10.04;96.22
75418;BME280;63997;52.112;5.420;2022-11-15T08:11:02;100867.22;;;10.05;96.40
75418;BME280;63997;52.112;5.420;2022-11-15T08:13:29;100851.28;;;10.05;96.39
75418;BME280;63997;52.112;5.420;2022-11-15T08:16:00;100848.31;;;10.07;96.17
75418;BME280;63997;52.112;5.420;2022-11-15T08:18:28;100854.06;;;10.09;96.13
75418;BME280;63997;52.112;5.420;2022-11-15T08:20:58;100847.69;;;10.10;96.24
75418;BME280;63997;52.112;5.420;2022-11-15T08:23:25;100855.00;;;10.13;96.00
75418;BME280;63997;52.112;5.420;2022-11-15T08:25:51;100857.84;;;10.17;96.12
75418;BME280;63997;52.112;5.420;2022-11-15T08:28:18;100864.06;;;10.21;96.07
75418;BME280;63997;52.112;5.420;2022-11-15T08:30:44;100855.94;;;10.26;95.94
75418;BME280;63997;52.112;5.420;2022-11-15T08:33:13;100855.34;;;10.29;95.94
75418;BME280;63997;52.112;5.420;2022-11-15T08:35:41;100857.66;;;10.30;95.89
75418;BME280;63997;52.112;5.420;2022-11-15T08:38:08;100852.34;;;10.30;95.92
75418;BME280;63997;52.112;5.420;2022-11-15T08:40:35;100853.91;;;10.31;95.58
75418;BME280;63997;52.112;5.420;2022-11-15T08:43:03;100839.53;;;10.32;95.75
75418;BME280;63997;52.112;5.420;2022-11-15T08:45:34;100839.53;;;10.32;95.41
75418;BME280;63997;52.112;5.420;2022-11-15T08:48:03;100835.47;;;10.35;95.58
75418;BME280;63997;52.112;5.420;2022-11-15T08:50:30;100829.53;;;10.38;95.46
75418;BME280;63997;52.112;5.420;2022-11-15T08:52:57;100826.22;;;10.41;95.57
75418;BME280;63997;52.112;5.420;2022-11-15T08:55:24;100824.81;;;10.44;95.37
75418;BME280;63997;52.112;5.420;2022-11-15T08:57:52;100831.03;;;10.48;95.30
75418;BME280;63997;52.112;5.420;2022-11-15T09:00:18;100825.22;;;10.54;95.22
75418;BME280;63997;52.112;5.420;2022-11-15T09:02:46;100828.47;;;10.60;95.38
75418;BME280;63997;52.112;5.420;2022-11-15T09:05:13;100819.56;;;10.65;95.06
75418;BME280;63997;52.112;5.420;2022-11-15T09:07:44;100820.16;;;10.70;95.22
75418;BME280;63997;52.112;5.420;2022-11-15T09:10:14;100829.34;;;10.81;94.87
75418;BME280;63997;52.112;5.420;2022-11-15T09:12:41;100826.13;;;10.97;94.85
75418;BME280;63997;52.112;5.420;2022-11-15T09:15:08;100834.84;;;11.06;94.76
75418;BME280;63997;52.112;5.420;2022-11-15T09:17:38;100818.22;;;11.09;94.34
75418;BME280;63997;52.112;5.420;2022-11-15T09:20:06;100816.00;;;11.11;93.92
75418;BME280;63997;52.112;5.420;2022-11-15T09:22:33;100812.72;;;11.14;93.97
75418;BME280;63997;52.112;5.420;2022-11-15T09:25:00;100813.84;;;11.13;93.55
75418;BME280;63997;52.112;5.420;2022-11-15T09:27:33;100813.69;;;11.09;93.47
75418;BME280;63997;52.112;5.420;2022-11-15T09:30:01;100816.00;;;11.11;93.46
75418;BME280;63997;52.112;5.420;2022-11-15T09:32:28;100810.69;;;11.11;92.84
75418;BME280;63997;52.112;5.420;2022-11-15T09:35:04;100818.03;;;11.14;92.64
75418;BME280;63997;52.112;5.420;2022-11-15T09:37:33;100814.59;;;11.13;91.98
75418;BME280;63997;52.112;5.420;2022-11-15T09:39:59;100807.22;;;11.19;91.69
75418;BME280;63997;52.112;5.420;2022-11-15T09:43:00;100812.38;;;11.16;90.98
75418;BME280;63997;52.112;5.420;2022-11-15T09:45:39;100802.91;;;11.06;91.05
75418;BME280;63997;52.112;5.420;2022-11-15T09:50:56;100801.84;;;10.98;90.50
75418;BME280;63997;52.112;5.420;2022-11-15T09:53:30;100798.81;;;11.08;90.35
75418;BME280;63997;52.112;5.420;2022-11-15T09:56:34;100797.16;;;11.46;89.42
75418;BME280;63997;52.112;5.420;2022-11-15T10:04:37;100792.63;;;11.46;87.39
75418;BME280;63997;52.112;5.420;2022-11-15T10:07:25;100789.38;;;11.41;87.59
75418;BME280;63997;52.112;5.420;2022-11-15T10:10:42;100791.56;;;11.38;87.51
75418;BME280;63997;52.112;5.420;2022-11-15T10:12:49;100783.97;;;11.49;87.13
75418;BME280;63997;52.112;5.420;2022-11-15T10:15:18;100786.41;;;11.54;86.72
75418;BME280;63997;52.112;5.420;2022-11-15T10:18:08;100777.66;;;11.54;86.38
75418;BME280;63997;52.112;5.420;2022-11-15T10:20:50;100781.19;;;11.46;85.54
75418;BME280;63997;52.112;5.420;2022-11-15T10:23:20;100797.03;;;11.42;84.97
75418;BME280;63997;52.112;5.420;2022-11-15T10:25:51;100779.81;;;11.39;84.92
75418;BME280;63997;52.112;5.420;2022-11-15T10:28:26;100780.91;;;11.38;84.52
75418;BME280;63997;52.112;5.420;2022-11-15T10:30:55;100775.56;;;11.38;84.64
75418;BME280;63997;52.112;5.420;2022-11-15T10:33:31;100769.63;;;11.42;85.18
75418;BME280;63997;52.112;5.420;2022-11-15T10:38:56;100762.53;;;11.46;84.49
75418;BME280;63997;52.112;5.420;2022-11-15T10:46:39;100747.72;;;11.57;83.11
75418;BME280;63997;52.112;5.420;2022-11-15T10:49:24;100750.56;;;11.52;82.75
75418;BME280;63997;52.112;5.420;2022-11-15T10:52:12;100745.91;;;11.49;83.32
75418;BME280;63997;52.112;5.420;2022-11-15T10:54:47;100733.94;;;11.55;83.64
75418;BME280;63997;52.112;5.420;2022-11-15T10:57:17;100733.09;;;11.63;83.67
75418;BME280;63997;52.112;5.420;2022-11-15T11:00:26;100730.25;;;11.80;83.94
75418;BME280;63997;52.112;5.420;2022-11-15T11:10:38;100709.97;;;11.88;82.37
75418;BME280;63997;52.112;5.420;2022-11-15T11:13:36;100712.41;;;11.93;81.50
75418;BME280;63997;52.112;5.420;2022-11-15T11:18:54;100719.66;;;12.05;80.33
75418;BME280;63997;52.112;5.420;2022-11-15T11:21:57;100715.66;;;11.99;80.87
75418;BME280;63997;52.112;5.420;2022-11-15T11:24:32;100713.31;;;11.97;80.66
75418;BME280;63997;52.112;5.420;2022-11-15T11:27:35;100704.75;;;11.91;81.17
75418;BME280;63997;52.112;5.420;2022-11-15T11:32:48;100701.41;;;11.82;80.72
75418;BME280;63997;52.112;5.420;2022-11-15T11:35:42;100705.41;;;11.88;81.25
75418;BME280;63997;52.112;5.420;2022-11-15T11:41:13;100699.38;;;11.79;80.12
75418;BME280;63997;52.112;5.420;2022-11-15T11:44:05;100695.81;;;11.75;80.68
75418;BME280;63997;52.112;5.420;2022-11-15T11:46:55;100677.03;;;11.72;80.19
75418;BME280;63997;52.112;5.420;2022-11-15T11:49:31;100686.91;;;11.71;80.68
75418;BME280;63997;52.112;5.420;2022-11-15T11:52:06;100690.28;;;11.80;81.18
75418;BME280;63997;52.112;5.420;2022-11-15T11:58:03;100669.91;;;11.97;80.62
75418;BME280;63997;52.112;5.420;2022-11-15T12:00:34;100669.13;;;12.08;79.17
75418;BME280;63997;52.112;5.420;2022-11-15T12:03:14;100657.78;;;12.11;78.85
75418;BME280;63997;52.112;5.420;2022-11-15T12:05:49;100651.69;;;12.11;77.40
75418;BME280;63997;52.112;5.420;2022-11-15T12:08:40;100659.25;;;12.09;77.86
75418;BME280;63997;52.112;5.420;2022-11-15T12:11:15;100641.34;;;12.09;77.21
75418;BME280;63997;52.112;5.420;2022-11-15T12:13:44;100645.47;;;12.07;76.43
75418;BME280;63997;52.112;5.420;2022-11-15T12:16:21;100649.22;;;12.06;77.06
75418;BME280;63997;52.112;5.420;2022-11-15T12:18:53;100633.59;;;12.04;75.95
75418;BME280;63997;52.112;5.420;2022-11-15T12:21:27;100642.69;;;12.03;75.89
75418;BME280;63997;52.112;5.420;2022-11-15T12:24:01;100626.59;;;12.00;75.88
75418;BME280;63997;52.112;5.420;2022-11-15T12:26:39;100622.16;;;12.04;75.65
75418;BME280;63997;52.112;5.420;2022-11-15T12:29:15;100608.16;;;12.07;76.26
75418;BME280;63997;52.112;5.420;2022-11-15T12:31:49;100599.47;;;12.10;75.47
75418;BME280;63997;52.112;5.420;2022-11-15T12:36:47;100603.69;;;12.11;74.28
75418;BME280;63997;52.112;5.420;2022-11-15T12:39:15;100597.25;;;12.12;75.43
75418;BME280;63997;52.112;5.420;2022-11-15T12:41:44;100595.94;;;12.18;74.81
75418;BME280;63997;52.112;5.420;2022-11-15T12:44:13;100585.69;;;12.20;75.25
75418;BME280;63997;52.112;5.420;2022-11-15T12:47:02;100583.16;;;12.24;74.55
75418;BME280;63997;52.112;5.420;2022-11-15T12:59:55;100564.38;;;12.20;76.02
75418;BME280;63997;52.112;5.420;2022-11-15T13:02:27;100560.81;;;12.16;74.00
75418;BME280;63997;52.112;5.420;2022-11-15T13:17:54;100533.97;;;12.09;74.05
75418;BME280;63997;52.112;5.420;2022-11-15T13:20:29;100529.28;;;12.06;74.42
75418;BME280;63997;52.112;5.420;2022-11-15T13:23:09;100526.19;;;12.04;74.14
75418;BME280;63997;52.112;5.420;2022-11-15T13:28:49;100522.78;;;11.91;74.41
75418;BME280;63997;52.112;5.420;2022-11-15T13:31:47;100510.03;;;11.84;74.38
75418;BME280;63997;52.112;5.420;2022-11-15T13:34:24;100506.78;;;11.79;74.20
75418;BME280;63997;52.112;5.420;2022-11-15T13:37:31;100511.56;;;11.73;74.53
75418;BME280;63997;52.112;5.420;2022-11-15T13:40:21;100505.34;;;11.69;75.08
75418;BME280;63997;52.112;5.420;2022-11-15T13:42:48;100507.09;;;11.65;75.33
75418;BME280;63997;52.112;5.420;2022-11-15T13:45:18;100495.91;;;11.59;74.97
75418;BME280;63997;52.112;5.420;2022-11-15T13:47:44;100494.56;;;11.53;75.31
75418;BME280;63997;52.112;5.420;2022-11-15T13:50:12;100485.69;;;11.49;75.00
75418;BME280;63997;52.112;5.420;2022-11-15T13:52:41;100484.03;;;11.45;74.96
75418;BME280;63997;52.112;5.420;2022-11-15T13:55:16;100484.69;;;11.42;75.27
75418;BME280;63997;52.112;5.420;2022-11-15T13:57:45;100485.34;;;11.38;75.56
75418;BME280;63997;52.112;5.420;2022-11-15T14:00:33;100473.50;;;11.36;75.75
75418;BME280;63997;52.112;5.420;2022-11-15T14:03:18;100471.50;;;11.33;75.43
75418;BME280;63997;52.112;5.420;2022-11-15T14:08:33;100464.84;;;11.27;75.22
75418;BME280;63997;52.112;5.420;2022-11-15T14:11:18;100466.28;;;11.24;75.02
75418;BME280;63997;52.112;5.420;2022-11-15T14:16:38;100449.63;;;11.15;75.41
75418;BME280;63997;52.112;5.420;2022-11-15T14:19:06;100449.19;;;11.13;75.63
75418;BME280;63997;52.112;5.420;2022-11-15T14:21:35;100451.88;;;11.13;75.85
75418;BME280;63997;52.112;5.420;2022-11-15T14:24:21;100446.53;;;11.13;75.94
75418;BME280;63997;52.112;5.420;2022-11-15T14:26:47;100439.66;;;11.12;76.20
75418;BME280;63997;52.112;5.420;2022-11-15T14:29:29;100431.69;;;11.12;76.29
75418;BME280;63997;52.112;5.420;2022-11-15T14:32:14;100434.66;;;11.10;75.89
75418;BME280;63997;52.112;5.420;2022-11-15T14:34:41;100426.69;;;11.10;75.92
75418;BME280;63997;52.112;5.420;2022-11-15T14:39:54;100420.56;;;11.10;75.51
75418;BME280;63997;52.112;5.420;2022-11-15T14:42:22;100416.03;;;11.10;75.16
75418;BME280;63997;52.112;5.420;2022-11-15T14:44:49;100413.81;;;11.12;75.58